Time;durP1;ratioP1;P1;durP2;ratioP2;P2;SDS_P1;SDS_P2;PMS_P1;PMS_P2;Temp;Humidity;BMP_temperature;BMP_pressure;BME280_temperature;BME280_humidity;BME280_pressure;Samples;Min_cycle;Max_cycle;Signal;HPM_P1;HPM_P2
2021/10/19 00:01:48;;;;;;;19.83;14.73;;;;;;;;;;5095004;28;20459;-75
2021/10/19 00:04:15;;;;;;;20.20;16.07;;;;;;;;;;5094836;28;20490;-74
2021/10/19 00:06:43;;;;;;;19.87;15.73;;;;;;;;;;5094782;28;20440;-74
2021/10/19 00:09:10;;;;;;;22.63;14.63;;;;;;;;;;5095039;28;20551;-74
2021/10/19 00:11:38;;;;;;;22.33;14.93;;;;;;;;;;5095046;28;20431;-74
2021/10/19 00:14:05;;;;;;;18.93;15.07;;;;;;;;;;5095244;28;20463;-74
2021/10/19 00:16:32;;;;;;;21.27;16.03;;;;;;;;;;5094941;28;20444;-74
2021/10/19 00:18:59;;;;;;;21.80;14.70;;;;;;;;;;5095412;28;20441;-74
2021/10/19 00:21:27;;;;;;;19.10;13.63;;;;;;;;;;5094939;28;20614;-74
2021/10/19 00:23:55;;;;;;;19.07;13.80;;;;;;;;;;5094339;28;20440;-75
2021/10/19 00:26:22;;;;;;;17.73;14.00;;;;;;;;;;5093869;28;20452;-74
2021/10/19 00:28:49;;;;;;;18.40;14.80;;;;;;;;;;5094803;28;20435;-75
2021/10/19 00:31:17;;;;;;;22.53;15.13;;;;;;;;;;5094676;28;20436;-74
2021/10/19 00:33:44;;;;;;;20.13;14.70;;;;;;;;;;5094816;28;20862;-74
2021/10/19 00:36:11;;;;;;;18.00;14.23;;;;;;;;;;5094225;28;20968;-74
2021/10/19 00:38:38;;;;;;;20.60;15.03;;;;;;;;;;5094251;28;20445;-74
2021/10/19 00:41:07;;;;;;;19.23;13.77;;;;;;;;;;5094197;28;20460;-74
2021/10/19 00:43:34;;;;;;;19.03;14.57;;;;;;;;;;5094689;28;20470;-74
2021/10/19 00:46:01;;;;;;;18.67;14.33;;;;;;;;;;5094497;28;20472;-74
2021/10/19 00:48:31;;;;;;;18.10;14.90;;;;;;;;;;5094072;28;21014;-74
2021/10/19 00:50:58;;;;;;;27.03;15.93;;;;;;;;;;5093992;28;20507;-74
2021/10/19 00:53:25;;;;;;;20.90;14.60;;;;;;;;;;5094071;28;20497;-74
2021/10/19 00:55:53;;;;;;;20.43;15.30;;;;;;;;;;5094473;28;20491;-74
2021/10/19 00:58:21;;;;;;;19.23;14.60;;;;;;;;;;5094165;28;20996;-74
2021/10/19 01:00:48;;;;;;;19.10;14.00;;;;;;;;;;5094248;28;20439;-74
2021/10/19 01:03:16;;;;;;;18.70;14.50;;;;;;;;;;5093879;28;20440;-74
2021/10/19 01:05:43;;;;;;;18.10;14.63;;;;;;;;;;5094468;28;20469;-74
2021/10/19 01:08:11;;;;;;;19.10;14.70;;;;;;;;;;5094445;28;20532;-74
2021/10/19 01:10:38;;;;;;;15.73;13.40;;;;;;;;;;5094267;28;20445;-74
2021/10/19 01:13:05;;;;;;;21.67;15.03;;;;;;;;;;5094210;28;20456;-74
2021/10/19 01:15:36;;;;;;;22.33;14.23;;;;;;;;;;5093856;28;20433;-75
2021/10/19 01:18:03;;;;;;;17.80;14.13;;;;;;;;;;5093769;28;20452;-74
2021/10/19 01:20:32;;;;;;;19.60;14.50;;;;;;;;;;5094104;28;20439;-74
2021/10/19 01:23:01;;;;;;;18.03;13.10;;;;;;;;;;5094084;28;20448;-74
2021/10/19 01:25:29;;;;;;;17.60;13.67;;;;;;;;;;5093593;28;20979;-74
2021/10/19 01:27:58;;;;;;;15.50;13.20;;;;;;;;;;5093673;28;20432;-74
2021/10/19 01:30:26;;;;;;;15.80;13.70;;;;;;;;;;5094228;28;20489;-74
2021/10/19 01:32:53;;;;;;;17.30;14.20;;;;;;;;;;5093919;28;20441;-74
2021/10/19 01:35:21;;;;;;;15.20;12.70;;;;;;;;;;5093554;28;20453;-71
2021/10/19 01:37:49;;;;;;;15.37;13.17;;;;;;;;;;5093850;28;20440;-74
2021/10/19 01:40:17;;;;;;;19.03;13.47;;;;;;;;;;5093486;28;20499;-73
2021/10/19 01:42:44;;;;;;;17.87;14.27;;;;;;;;;;5094098;28;20452;-74
2021/10/19 01:45:15;;;;;;;19.27;13.63;;;;;;;;;;5093668;28;20480;-73
2021/10/19 01:47:43;;;;;;;18.20;14.30;;;;;;;;;;5093681;28;20444;-73
2021/10/19 01:50:10;;;;;;;16.60;13.00;;;;;;;;;;5093711;28;20855;-75
2021/10/19 01:52:38;;;;;;;18.33;14.20;;;;;;;;;;5093336;28;20454;-73
2021/10/19 01:55:08;;;;;;;17.23;14.60;;;;;;;;;;5093866;28;20445;-74
2021/10/19 01:57:36;;;;;;;18.10;13.53;;;;;;;;;;5093853;28;20443;-73
2021/10/19 02:00:03;;;;;;;17.93;13.00;;;;;;;;;;5093554;28;20439;-73
2021/10/19 02:02:30;;;;;;;15.37;13.00;;;;;;;;;;5092771;28;20452;-73
2021/10/19 02:04:58;;;;;;;15.77;13.07;;;;;;;;;;5093474;28;20485;-73
2021/10/19 02:07:25;;;;;;;16.07;12.43;;;;;;;;;;5093498;28;20447;-74
2021/10/19 02:09:52;;;;;;;16.27;13.17;;;;;;;;;;5093450;28;20531;-75
2021/10/19 02:12:20;;;;;;;18.37;13.80;;;;;;;;;;5093095;28;20440;-75
2021/10/19 02:14:48;;;;;;;14.30;12.47;;;;;;;;;;5093083;28;20452;-74
2021/10/19 02:17:15;;;;;;;15.90;12.87;;;;;;;;;;5093268;28;20798;-74
2021/10/19 02:19:42;;;;;;;15.23;12.77;;;;;;;;;;5093452;28;20442;-74
2021/10/19 02:22:09;;;;;;;13.87;12.47;;;;;;;;;;5093089;28;20528;-73
2021/10/19 02:24:36;;;;;;;14.70;13.13;;;;;;;;;;5092950;28;20437;-73
2021/10/19 02:27:04;;;;;;;13.17;11.80;;;;;;;;;;5093356;28;20436;-73
2021/10/19 02:29:32;;;;;;;14.30;12.80;;;;;;;;;;5093296;28;20442;-73
2021/10/19 02:32:00;;;;;;;17.50;12.87;;;;;;;;;;5093971;28;20440;-74
2021/10/19 02:34:27;;;;;;;16.80;14.30;;;;;;;;;;5093291;28;20445;-73
2021/10/19 02:36:55;;;;;;;17.47;13.30;;;;;;;;;;5092914;28;20481;-73
2021/10/19 02:39:22;;;;;;;15.40;12.70;;;;;;;;;;5092888;28;20450;-73
2021/10/19 02:41:50;;;;;;;19.13;14.57;;;;;;;;;;5093146;28;20455;-73
2021/10/19 02:44:17;;;;;;;16.07;12.67;;;;;;;;;;5093592;28;20460;-73
2021/10/19 02:46:45;;;;;;;14.77;12.87;;;;;;;;;;5093039;28;20481;-73
2021/10/19 02:49:13;;;;;;;15.10;13.43;;;;;;;;;;5095181;28;20796;-73
2021/10/19 02:51:40;;;;;;;15.67;13.60;;;;;;;;;;5096935;28;20436;-73
2021/10/19 02:54:07;;;;;;;15.40;13.07;;;;;;;;;;5096625;28;20936;-74
2021/10/19 02:56:34;;;;;;;14.13;12.63;;;;;;;;;;5096841;28;20443;-73
2021/10/19 02:59:02;;;;;;;16.23;12.63;;;;;;;;;;5096486;28;20444;-73
2021/10/19 03:01:29;;;;;;;16.50;12.10;;;;;;;;;;5096398;28;20452;-74
2021/10/19 03:03:58;;;;;;;16.80;13.70;;;;;;;;;;5096443;28;20985;-74
2021/10/19 03:06:25;;;;;;;17.10;13.10;;;;;;;;;;5096454;28;20850;-74
2021/10/19 03:08:54;;;;;;;18.10;13.03;;;;;;;;;;5096580;28;20432;-74
2021/10/19 03:11:21;;;;;;;14.93;12.67;;;;;;;;;;5097136;28;20472;-74
2021/10/19 03:13:48;;;;;;;17.37;14.07;;;;;;;;;;5096644;28;20455;-74
2021/10/19 03:16:15;;;;;;;18.10;12.10;;;;;;;;;;5096618;28;20454;-73
2021/10/19 03:18:42;;;;;;;14.00;12.60;;;;;;;;;;5095908;28;20909;-74
2021/10/19 03:21:11;;;;;;;17.00;13.00;;;;;;;;;;5096106;28;20797;-74
2021/10/19 03:23:38;;;;;;;16.20;12.43;;;;;;;;;;5096136;28;20435;-74
2021/10/19 03:26:05;;;;;;;15.50;13.90;;;;;;;;;;5095845;28;20484;-74
2021/10/19 03:28:32;;;;;;;15.93;12.20;;;;;;;;;;5095915;28;20441;-74
2021/10/19 03:31:00;;;;;;;18.43;12.60;;;;;;;;;;5095977;28;20943;-74
2021/10/19 03:33:29;;;;;;;19.23;12.40;;;;;;;;;;5096367;28;20437;-74
2021/10/19 03:35:57;;;;;;;17.03;13.80;;;;;;;;;;5095805;28;20513;-74
2021/10/19 03:38:25;;;;;;;17.67;13.30;;;;;;;;;;5096286;28;20520;-75
2021/10/19 03:40:52;;;;;;;17.27;13.10;;;;;;;;;;5096270;28;20450;-75
2021/10/19 03:43:19;;;;;;;17.70;12.70;;;;;;;;;;5095518;28;20938;-74
2021/10/19 03:45:47;;;;;;;14.53;12.37;;;;;;;;;;5095455;28;20479;-74
2021/10/19 03:48:14;;;;;;;16.03;12.57;;;;;;;;;;5095930;28;20443;-74
2021/10/19 03:50:41;;;;;;;16.13;13.63;;;;;;;;;;5096303;28;20448;-74
2021/10/19 03:53:10;;;;;;;16.10;13.10;;;;;;;;;;5095762;28;20544;-74
2021/10/19 03:55:39;;;;;;;16.90;12.50;;;;;;;;;;5095383;28;20452;-75
2021/10/19 03:58:06;;;;;;;16.13;13.37;;;;;;;;;;5095332;28;20527;-74
2021/10/19 04:00:33;;;;;;;17.17;12.87;;;;;;;;;;5095462;28;20439;-74
2021/10/19 04:03:00;;;;;;;15.73;13.23;;;;;;;;;;5095830;28;20437;-74
2021/10/19 04:05:28;;;;;;;15.00;12.10;;;;;;;;;;5095636;28;20491;-74
2021/10/19 04:07:55;;;;;;;15.40;13.13;;;;;;;;;;5095524;28;20442;-73
2021/10/19 04:10:23;;;;;;;15.13;13.33;;;;;;;;;;5095393;28;20445;-74
2021/10/19 04:12:52;;;;;;;18.10;13.87;;;;;;;;;;5095389;28;20773;-73
2021/10/19 04:15:19;;;;;;;18.90;13.23;;;;;;;;;;5095392;28;20450;-74
2021/10/19 04:17:46;;;;;;;15.20;13.17;;;;;;;;;;5095290;28;20440;-76
2021/10/19 04:20:13;;;;;;;15.00;13.27;;;;;;;;;;5095440;28;20447;-74
2021/10/19 04:22:41;;;;;;;19.43;14.13;;;;;;;;;;5094855;28;20456;-75
2021/10/19 04:25:08;;;;;;;16.50;13.03;;;;;;;;;;5095070;28;20529;-75
2021/10/19 04:27:36;;;;;;;21.20;14.67;;;;;;;;;;5094189;28;20927;-75
2021/10/19 04:30:04;;;;;;;18.10;13.60;;;;;;;;;;5095015;28;20437;-75
2021/10/19 04:32:32;;;;;;;19.50;13.27;;;;;;;;;;5095012;28;20437;-76
2021/10/19 04:34:59;;;;;;;16.00;14.20;;;;;;;;;;5094900;28;20533;-76
2021/10/19 04:37:27;;;;;;;17.60;13.70;;;;;;;;;;5094865;28;20455;-75
2021/10/19 04:39:54;;;;;;;18.80;14.10;;;;;;;;;;5093734;28;20552;-76
2021/10/19 04:42:21;;;;;;;18.00;13.00;;;;;;;;;;5094333;28;20448;-76
2021/10/19 04:44:48;;;;;;;17.50;14.17;;;;;;;;;;5094531;28;20445;-76
2021/10/19 04:47:17;;;;;;;17.33;13.37;;;;;;;;;;5094537;28;20491;-75
2021/10/19 04:49:44;;;;;;;16.13;13.83;;;;;;;;;;5094712;28;20474;-76
2021/10/19 04:52:11;;;;;;;19.83;13.73;;;;;;;;;;5094618;28;20442;-76
2021/10/19 04:54:38;;;;;;;14.13;12.23;;;;;;;;;;5094200;28;20536;-76
2021/10/19 04:57:06;;;;;;;15.63;13.07;;;;;;;;;;5093757;28;20462;-75
2021/10/19 04:59:33;;;;;;;16.70;14.03;;;;;;;;;;5094696;28;20530;-75
2021/10/19 05:02:00;;;;;;;20.90;15.03;;;;;;;;;;5094814;28;20525;-76
2021/10/19 05:04:29;;;;;;;15.70;12.77;;;;;;;;;;5094616;28;20477;-75
2021/10/19 05:06:56;;;;;;;14.37;12.80;;;;;;;;;;5093899;28;20479;-75
2021/10/19 05:09:23;;;;;;;14.63;12.97;;;;;;;;;;5094552;28;20473;-74
2021/10/19 05:11:50;;;;;;;17.43;14.57;;;;;;;;;;5093275;28;20519;-75
2021/10/19 05:14:17;;;;;;;16.10;12.70;;;;;;;;;;5093930;28;20504;-75
2021/10/19 05:16:45;;;;;;;19.03;12.80;;;;;;;;;;5094297;28;20441;-75
2021/10/19 05:19:12;;;;;;;19.87;13.20;;;;;;;;;;5093974;28;20493;-75
2021/10/19 05:21:40;;;;;;;23.57;14.70;;;;;;;;;;5094059;28;20433;-76
2021/10/19 05:24:08;;;;;;;16.93;13.40;;;;;;;;;;5094125;28;20552;-75
2021/10/19 05:26:35;;;;;;;18.13;13.73;;;;;;;;;;5093978;28;20484;-76
2021/10/19 05:29:02;;;;;;;20.90;13.37;;;;;;;;;;5092446;28;20442;-74
2021/10/19 05:31:29;;;;;;;16.87;14.17;;;;;;;;;;5092782;28;20429;-76
2021/10/19 05:33:56;;;;;;;26.03;15.30;;;;;;;;;;5093755;28;20447;-75
2021/10/19 05:36:23;;;;;;;18.67;13.80;;;;;;;;;;5093980;28;20456;-78
2021/10/19 05:38:52;;;;;;;20.20;14.13;;;;;;;;;;5094066;28;20441;-78
2021/10/19 05:41:19;;;;;;;15.67;14.07;;;;;;;;;;5093454;28;20947;-78
2021/10/19 05:43:46;;;;;;;16.67;14.17;;;;;;;;;;5093419;28;20885;-77
2021/10/19 05:46:14;;;;;;;27.40;15.40;;;;;;;;;;5093698;28;20471;-77
2021/10/19 05:48:41;;;;;;;18.77;13.47;;;;;;;;;;5093344;28;20524;-78
2021/10/19 05:51:08;;;;;;;17.13;13.13;;;;;;;;;;5094176;28;20447;-77
2021/10/19 05:53:39;;;;;;;15.33;13.20;;;;;;;;;;5093631;28;20448;-77
2021/10/19 05:56:07;;;;;;;20.63;14.07;;;;;;;;;;5093749;28;20436;-77
2021/10/19 05:58:34;;;;;;;17.90;14.87;;;;;;;;;;5093639;28;20444;-77
2021/10/19 06:01:02;;;;;;;15.40;12.90;;;;;;;;;;5093515;28;20441;-78
2021/10/19 06:03:29;;;;;;;17.93;13.90;;;;;;;;;;5093426;28;20962;-76
2021/10/19 06:05:58;;;;;;;19.67;13.83;;;;;;;;;;5093747;28;20432;-77
2021/10/19 06:08:25;;;;;;;19.23;12.83;;;;;;;;;;5093535;28;20444;-77
2021/10/19 06:10:56;;;;;;;15.90;12.70;;;;;;;;;;5093705;28;20436;-79
2021/10/19 06:13:26;;;;;;;15.50;13.53;;;;;;;;;;5093730;28;20452;-77
2021/10/19 06:15:54;;;;;;;16.20;12.20;;;;;;;;;;5093028;28;20439;-77
2021/10/19 06:18:21;;;;;;;19.00;14.30;;;;;;;;;;5093081;28;20436;-77
2021/10/19 06:20:49;;;;;;;21.60;13.43;;;;;;;;;;5093428;28;20439;-77
2021/10/19 06:23:16;;;;;;;20.20;13.73;;;;;;;;;;5093632;28;20457;-77
2021/10/19 06:25:44;;;;;;;16.13;14.03;;;;;;;;;;5097384;28;20932;-77
2021/10/19 06:28:11;;;;;;;17.73;15.00;;;;;;;;;;5096894;28;20987;-76
2021/10/19 06:30:40;;;;;;;16.00;14.30;;;;;;;;;;5097266;28;20444;-77
2021/10/19 06:33:07;;;;;;;19.27;15.40;;;;;;;;;;5097210;28;20437;-76
2021/10/19 06:35:34;;;;;;;21.20;15.63;;;;;;;;;;5097264;28;20435;-77
2021/10/19 06:38:01;;;;;;;18.00;14.80;;;;;;;;;;5097164;28;20440;-77
2021/10/19 06:40:29;;;;;;;20.10;16.87;;;;;;;;;;5097113;28;20479;-77
2021/10/19 06:42:56;;;;;;;23.13;17.10;;;;;;;;;;5096826;28;20447;-77
2021/10/19 06:45:23;;;;;;;28.13;18.57;;;;;;;;;;5097044;28;20434;-77
2021/10/19 06:47:52;;;;;;;20.00;16.00;;;;;;;;;;5097009;28;20476;-78
2021/10/19 06:50:19;;;;;;;17.80;14.27;;;;;;;;;;5096606;28;20949;-79
2021/10/19 06:52:46;;;;;;;21.10;17.43;;;;;;;;;;5097101;28;20459;-77
2021/10/19 06:55:14;;;;;;;20.87;16.40;;;;;;;;;;5096883;28;20440;-78
2021/10/19 06:57:42;;;;;;;19.13;15.47;;;;;;;;;;5096841;28;20506;-77
2021/10/19 07:00:10;;;;;;;24.67;16.00;;;;;;;;;;5096683;28;20506;-77
2021/10/19 07:02:37;;;;;;;23.53;17.90;;;;;;;;;;5097030;28;20481;-77
2021/10/19 07:05:06;;;;;;;19.77;16.73;;;;;;;;;;5096598;28;20470;-77
2021/10/19 07:07:33;;;;;;;18.80;16.10;;;;;;;;;;5096204;28;20982;-77
2021/10/19 07:10:01;;;;;;;23.60;15.40;;;;;;;;;;5096594;28;20544;-77
2021/10/19 07:12:29;;;;;;;21.13;16.27;;;;;;;;;;5096137;28;20463;-76
2021/10/19 07:14:56;;;;;;;20.70;15.93;;;;;;;;;;5096519;28;20541;-76
2021/10/19 07:17:23;;;;;;;21.27;17.63;;;;;;;;;;5096511;28;20466;-78
2021/10/19 07:19:50;;;;;;;18.53;16.33;;;;;;;;;;5096436;28;20439;-76
2021/10/19 07:22:19;;;;;;;18.73;16.30;;;;;;;;;;5096370;28;20923;-78
2021/10/19 07:24:46;;;;;;;24.97;17.17;;;;;;;;;;5096256;28;20445;-78
2021/10/19 07:27:14;;;;;;;19.77;15.00;;;;;;;;;;5096928;28;20568;-78
2021/10/19 07:29:43;;;;;;;23.77;17.30;;;;;;;;;;5095808;28;20510;-77
2021/10/19 07:32:11;;;;;;;22.33;16.90;;;;;;;;;;5096707;28;20540;-77
2021/10/19 07:34:38;;;;;;;20.27;15.97;;;;;;;;;;5095195;28;20930;-77
2021/10/19 07:37:05;;;;;;;19.67;15.60;;;;;;;;;;5096508;28;20806;-77
2021/10/19 07:39:34;;;;;;;19.83;16.53;;;;;;;;;;5096337;28;20441;-77
2021/10/19 07:42:01;;;;;;;25.00;17.83;;;;;;;;;;5095598;28;20448;-77
2021/10/19 07:44:28;;;;;;;19.30;15.87;;;;;;;;;;5096136;28;20448;-77
2021/10/19 07:46:55;;;;;;;24.43;15.07;;;;;;;;;;5095429;28;21078;-77
2021/10/19 07:49:22;;;;;;;18.77;16.70;;;;;;;;;;5096069;28;20444;-77
2021/10/19 07:51:50;;;;;;;24.07;18.00;;;;;;;;;;5095958;28;20438;-77
2021/10/19 07:54:18;;;;;;;18.03;15.20;;;;;;;;;;5096297;28;20947;-77
2021/10/19 07:56:46;;;;;;;17.93;14.90;;;;;;;;;;5095928;28;20454;-76
2021/10/19 07:59:13;;;;;;;18.53;14.30;;;;;;;;;;5095271;28;20923;-77
2021/10/19 08:01:42;;;;;;;19.30;12.67;;;;;;;;;;5092116;28;20459;-77
2021/10/19 08:04:09;;;;;;;16.17;13.47;;;;;;;;;;5094921;28;20473;-77
2021/10/19 08:06:38;;;;;;;20.07;12.40;;;;;;;;;;5095634;28;20451;-77
2021/10/19 08:09:05;;;;;;;12.83;11.53;;;;;;;;;;5095405;28;20484;-77
2021/10/19 08:11:33;;;;;;;14.00;12.60;;;;;;;;;;5095295;28;20521;-77
2021/10/19 08:14:02;;;;;;;16.80;11.67;;;;;;;;;;5095420;28;20448;-77
2021/10/19 08:16:29;;;;;;;12.73;11.43;;;;;;;;;;5094953;28;20520;-77
2021/10/19 08:18:56;;;;;;;12.83;11.30;;;;;;;;;;5095025;28;20816;-77
2021/10/19 08:21:24;;;;;;;11.63;10.27;;;;;;;;;;5095371;28;20546;-77
2021/10/19 08:23:51;;;;;;;12.87;11.50;;;;;;;;;;5095093;28;20531;-76
2021/10/19 08:26:18;;;;;;;12.50;11.20;;;;;;;;;;5094246;28;20444;-77
2021/10/19 08:28:47;;;;;;;14.17;11.57;;;;;;;;;;5094602;28;20477;-76
2021/10/19 08:31:17;;;;;;;12.70;11.50;;;;;;;;;;5095098;28;20777;-77
2021/10/19 08:33:44;;;;;;;12.97;11.67;;;;;;;;;;5094625;28;20445;-77
2021/10/19 08:36:12;;;;;;;11.93;10.77;;;;;;;;;;5095074;28;20453;-77
2021/10/19 08:38:41;;;;;;;11.67;10.57;;;;;;;;;;5094577;28;20488;-77
2021/10/19 08:41:08;;;;;;;12.57;11.33;;;;;;;;;;5088831;28;20447;-76
2021/10/19 08:43:38;;;;;;;11.40;10.30;;;;;;;;;;5074623;28;20447;-77
2021/10/19 08:46:07;;;;;;;11.30;9.80;;;;;;;;;;5074451;28;20473;-77
2021/10/19 08:48:35;;;;;;;11.40;10.30;;;;;;;;;;5074287;28;20480;-77
2021/10/19 08:51:03;;;;;;;12.90;10.20;;;;;;;;;;5074596;28;20439;-76
2021/10/19 08:53:30;;;;;;;14.67;10.53;;;;;;;;;;5074386;28;20470;-77
2021/10/19 08:55:57;;;;;;;12.17;10.97;;;;;;;;;;5074317;28;20533;-76
2021/10/19 08:58:24;;;;;;;13.27;10.80;;;;;;;;;;5074096;28;20456;-76
2021/10/19 09:01:02;;;;;;;19.43;10.93;;;;;;;;;;5073843;28;20952;-76
2021/10/19 09:03:29;;;;;;;11.80;10.60;;;;;;;;;;5074423;28;20896;-77
2021/10/19 09:05:58;;;;;;;11.37;9.70;;;;;;;;;;5074383;28;20916;-76
2021/10/19 09:08:26;;;;;;;14.80;10.70;;;;;;;;;;5074464;28;20489;-77
2021/10/19 09:10:53;;;;;;;10.80;9.70;;;;;;;;;;5073616;28;20444;-77
2021/10/19 09:13:21;;;;;;;11.23;10.37;;;;;;;;;;5073658;28;20456;-77
2021/10/19 09:15:48;;;;;;;12.20;9.30;;;;;;;;;;5076575;28;20466;-76
2021/10/19 09:18:16;;;;;;;12.83;11.07;;;;;;;;;;5094398;28;20452;-76
2021/10/19 09:20:45;;;;;;;12.67;10.57;;;;;;;;;;5094395;28;20446;-77
2021/10/19 09:23:15;;;;;;;11.70;10.60;;;;;;;;;;5093698;28;20481;-76
2021/10/19 09:25:43;;;;;;;11.00;9.90;;;;;;;;;;5093979;28;20445;-77
2021/10/19 09:28:11;;;;;;;11.33;9.70;;;;;;;;;;5094486;28;20474;-76
2021/10/19 09:30:40;;;;;;;10.80;9.80;;;;;;;;;;5093589;28;20936;-77
2021/10/19 09:33:08;;;;;;;14.77;10.60;;;;;;;;;;5093529;28;20446;-76
2021/10/19 09:35:35;;;;;;;12.17;10.97;;;;;;;;;;5093499;28;20446;-77
2021/10/19 09:38:05;;;;;;;11.40;10.20;;;;;;;;;;5094178;28;20445;-76
2021/10/19 09:40:34;;;;;;;12.03;10.17;;;;;;;;;;5093779;28;20445;-76
2021/10/19 09:43:02;;;;;;;13.10;11.90;;;;;;;;;;5093345;28;20448;-76
2021/10/19 09:45:30;;;;;;;13.30;11.90;;;;;;;;;;5093624;28;20448;-78
2021/10/19 09:47:58;;;;;;;11.90;10.80;;;;;;;;;;5073346;28;20479;-78
2021/10/19 09:50:26;;;;;;;11.70;10.60;;;;;;;;;;5073134;28;20466;-77
2021/10/19 09:52:54;;;;;;;12.97;11.83;;;;;;;;;;5073309;28;20921;-78
2021/10/19 09:55:22;;;;;;;11.87;10.80;;;;;;;;;;5073620;28;20443;-77
2021/10/19 09:57:52;;;;;;;13.50;11.13;;;;;;;;;;5073340;28;20501;-76
2021/10/19 10:00:19;;;;;;;14.27;11.03;;;;;;;;;;5073047;28;20452;-77
2021/10/19 10:02:47;;;;;;;12.50;11.30;;;;;;;;;;5073607;28;20457;-77
2021/10/19 10:05:15;;;;;;;11.50;10.47;;;;;;;;;;5073361;28;20482;-77
2021/10/19 10:07:44;;;;;;;13.90;12.40;;;;;;;;;;5073328;28;20474;-77
2021/10/19 10:10:13;;;;;;;13.03;11.97;;;;;;;;;;5072917;28;20538;-77
2021/10/19 10:12:44;;;;;;;13.23;12.13;;;;;;;;;;5073291;28;20813;-77
2021/10/19 10:15:22;;;;;;;13.03;11.93;;;;;;;;;;5073606;28;20435;-77
2021/10/19 10:17:50;;;;;;;12.90;11.80;;;;;;;;;;5073232;28;20431;-77
2021/10/19 10:20:18;;;;;;;13.17;11.87;;;;;;;;;;5073131;28;20542;-77
2021/10/19 10:22:45;;;;;;;12.70;11.70;;;;;;;;;;5072858;28;20935;-77
2021/10/19 10:25:15;;;;;;;13.60;12.37;;;;;;;;;;5073008;28;20443;-76
2021/10/19 10:27:42;;;;;;;17.83;14.40;;;;;;;;;;5073045;28;20473;-77
2021/10/19 10:30:20;;;;;;;15.70;13.37;;;;;;;;;;5073313;28;20548;-76
2021/10/19 10:32:47;;;;;;;14.20;13.10;;;;;;;;;;5073312;28;20810;-77
2021/10/19 10:35:15;;;;;;;13.07;11.97;;;;;;;;;;5073053;28;20444;-76
2021/10/19 10:37:46;;;;;;;14.33;12.67;;;;;;;;;;5072713;28;20456;-77
2021/10/19 10:40:15;;;;;;;14.03;12.60;;;;;;;;;;5072692;28;20427;-77
2021/10/19 10:42:43;;;;;;;14.67;13.20;;;;;;;;;;5072994;28;20451;-78
2021/10/19 10:45:17;;;;;;;15.80;14.27;;;;;;;;;;5072944;28;20791;-78
2021/10/19 10:47:47;;;;;;;14.93;13.33;;;;;;;;;;5072738;28;20481;-77
2021/10/19 10:50:14;;;;;;;14.77;13.47;;;;;;;;;;5072548;28;20540;-77
2021/10/19 10:52:42;;;;;;;15.63;13.83;;;;;;;;;;5072888;28;20452;-78
2021/10/19 10:55:13;;;;;;;14.80;13.47;;;;;;;;;;5072839;28;20454;-77
2021/10/19 10:57:44;;;;;;;13.80;12.63;;;;;;;;;;5072831;28;20441;-77
2021/10/19 11:00:12;;;;;;;17.27;13.80;;;;;;;;;;5072469;28;20439;-76
2021/10/19 11:02:39;;;;;;;13.40;12.30;;;;;;;;;;5072713;28;20471;-75
2021/10/19 11:05:08;;;;;;;14.67;13.27;;;;;;;;;;5072757;28;20473;-74
2021/10/19 11:07:37;;;;;;;16.60;13.23;;;;;;;;;;5072263;28;20444;-74
2021/10/19 11:10:09;;;;;;;13.77;12.47;;;;;;;;;;5074519;28;20470;-73
2021/10/19 11:12:36;;;;;;;14.50;11.87;;;;;;;;;;5075794;28;20452;-73
2021/10/19 11:15:10;;;;;;;14.67;13.27;;;;;;;;;;5076514;28;20525;-72
2021/10/19 11:17:44;;;;;;;14.97;13.73;;;;;;;;;;5076235;28;20448;-71
2021/10/19 11:20:13;;;;;;;17.27;13.10;;;;;;;;;;5076125;28;20445;-71
2021/10/19 11:22:40;;;;;;;18.03;16.23;;;;;;;;;;5076095;28;20488;-71
2021/10/19 11:25:08;;;;;;;14.60;12.73;;;;;;;;;;5075743;28;21003;-71
2021/10/19 11:27:35;;;;;;;15.50;11.80;;;;;;;;;;5075932;28;20531;-70
2021/10/19 11:30:02;;;;;;;14.43;13.03;;;;;;;;;;5075637;28;20949;-70
2021/10/19 11:32:29;;;;;;;9.87;8.87;;;;;;;;;;5075901;28;20449;-70
2021/10/19 11:34:57;;;;;;;12.97;11.87;;;;;;;;;;5075552;28;20449;-70
2021/10/19 11:37:25;;;;;;;13.00;11.90;;;;;;;;;;5076122;28;20451;-70
2021/10/19 11:40:02;;;;;;;14.33;13.13;;;;;;;;;;5075685;28;20483;-70
2021/10/19 11:42:29;;;;;;;12.80;11.77;;;;;;;;;;5076094;28;20548;-70
2021/10/19 11:44:56;;;;;;;13.07;11.77;;;;;;;;;;5075693;28;20565;-70
2021/10/19 11:47:24;;;;;;;13.30;12.30;;;;;;;;;;5075545;28;20447;-70
2021/10/19 11:49:51;;;;;;;14.33;12.83;;;;;;;;;;5076086;28;20485;-70
2021/10/19 11:52:18;;;;;;;12.77;11.77;;;;;;;;;;5075282;28;20446;-70
2021/10/19 11:54:47;;;;;;;13.53;12.23;;;;;;;;;;5075399;28;20443;-71
2021/10/19 11:57:15;;;;;;;14.30;12.90;;;;;;;;;;5075662;28;20438;-76
2021/10/19 11:59:43;;;;;;;16.43;15.00;;;;;;;;;;5075053;28;20483;-79
2021/10/19 12:02:10;;;;;;;13.93;12.80;;;;;;;;;;5075706;28;20446;-73
2021/10/19 12:04:40;;;;;;;18.33;13.10;;;;;;;;;;5075037;28;20465;-73
2021/10/19 12:07:09;;;;;;;14.83;13.50;;;;;;;;;;5075663;28;20466;-73
2021/10/19 12:09:37;;;;;;;16.13;13.27;;;;;;;;;;5075250;28;20477;-74
2021/10/19 12:12:06;;;;;;;12.97;11.90;;;;;;;;;;5075203;28;20438;-73
2021/10/19 12:14:35;;;;;;;16.63;12.20;;;;;;;;;;5074796;28;20443;-75
2021/10/19 12:17:03;;;;;;;13.53;12.43;;;;;;;;;;5092775;28;20800;-73
2021/10/19 12:19:30;;;;;;;12.73;11.70;;;;;;;;;;5095473;28;20534;-74
2021/10/19 12:21:58;;;;;;;14.57;13.20;;;;;;;;;;5094813;28;20443;-73
2021/10/19 12:24:26;;;;;;;13.57;12.40;;;;;;;;;;5094781;28;20461;-74
2021/10/19 12:27:00;;;;;;;14.70;13.50;;;;;;;;;;5095413;28;20841;-74
2021/10/19 12:29:30;;;;;;;14.83;13.53;;;;;;;;;;5094945;28;20477;-76
2021/10/19 12:31:57;;;;;;;15.47;14.20;;;;;;;;;;5095234;28;20527;-74
2021/10/19 12:34:26;;;;;;;14.10;12.90;;;;;;;;;;5094939;28;20477;-74
2021/10/19 12:36:54;;;;;;;14.07;12.97;;;;;;;;;;5094876;28;20444;-73
2021/10/19 12:39:22;;;;;;;12.80;11.70;;;;;;;;;;5094447;28;20950;-73
2021/10/19 12:41:50;;;;;;;13.23;12.23;;;;;;;;;;5094848;28;20457;-73
2021/10/19 12:44:18;;;;;;;13.83;12.47;;;;;;;;;;5094885;28;20448;-75
2021/10/19 12:46:47;;;;;;;18.90;13.80;;;;;;;;;;5083482;28;20939;-74
2021/10/19 12:49:14;;;;;;;15.23;13.93;;;;;;;;;;5074184;28;20488;-75
2021/10/19 12:51:41;;;;;;;15.10;13.70;;;;;;;;;;5074006;28;20454;-74
2021/10/19 12:54:09;;;;;;;14.40;13.33;;;;;;;;;;5074289;28;20437;-73
2021/10/19 12:56:37;;;;;;;14.63;13.43;;;;;;;;;;5074261;28;20551;-74
2021/10/19 12:59:05;;;;;;;14.27;12.83;;;;;;;;;;5074184;28;20546;-74
2021/10/19 13:01:32;;;;;;;16.57;15.23;;;;;;;;;;5074082;28;20526;-74
2021/10/19 13:04:01;;;;;;;15.93;14.23;;;;;;;;;;5073974;28;21060;-74
2021/10/19 13:06:30;;;;;;;16.43;14.73;;;;;;;;;;5073868;28;20463;-73
2021/10/19 13:08:57;;;;;;;15.67;14.27;;;;;;;;;;5073087;28;20475;-73
2021/10/19 13:11:25;;;;;;;19.10;17.10;;;;;;;;;;5073621;28;20450;-73
2021/10/19 13:13:52;;;;;;;20.73;17.03;;;;;;;;;;5073666;28;20462;-74
2021/10/19 13:16:19;;;;;;;23.07;17.87;;;;;;;;;;5086042;28;20470;-75
2021/10/19 13:18:46;;;;;;;18.63;16.77;;;;;;;;;;5094172;28;20530;-74
2021/10/19 13:21:16;;;;;;;19.17;17.03;;;;;;;;;;5093715;28;20435;-73
2021/10/19 13:23:44;;;;;;;26.77;17.40;;;;;;;;;;5094407;28;20462;-74
2021/10/19 13:26:11;;;;;;;19.43;17.23;;;;;;;;;;5093680;28;20431;-74
2021/10/19 13:28:39;;;;;;;21.17;18.27;;;;;;;;;;5094618;28;20816;-74
2021/10/19 13:31:06;;;;;;;22.43;19.90;;;;;;;;;;5093995;28;20528;-74
2021/10/19 13:33:33;;;;;;;24.80;19.80;;;;;;;;;;5093493;28;20442;-74
2021/10/19 13:36:02;;;;;;;21.50;19.30;;;;;;;;;;5093732;28;20515;-73
2021/10/19 13:38:30;;;;;;;20.70;18.17;;;;;;;;;;5093516;28;20509;-73
2021/10/19 13:40:58;;;;;;;22.13;19.77;;;;;;;;;;5094303;28;20806;-73
2021/10/19 13:43:25;;;;;;;22.90;19.67;;;;;;;;;;5093899;28;20449;-73
2021/10/19 13:45:53;;;;;;;21.70;19.37;;;;;;;;;;5090236;28;20434;-73
2021/10/19 13:48:20;;;;;;;21.17;19.07;;;;;;;;;;5073397;28;20439;-73
2021/10/19 13:50:48;;;;;;;21.40;18.30;;;;;;;;;;5073113;28;20457;-73
2021/10/19 13:53:15;;;;;;;24.50;20.00;;;;;;;;;;5073057;28;20532;-73
2021/10/19 13:55:44;;;;;;;23.93;20.10;;;;;;;;;;5073416;28;20458;-72
2021/10/19 13:58:12;;;;;;;30.40;20.80;;;;;;;;;;5073540;28;20443;-73
2021/10/19 14:00:40;;;;;;;30.00;22.27;;;;;;;;;;5073615;28;20445;-74
2021/10/19 14:03:07;;;;;;;27.67;23.00;;;;;;;;;;5073036;28;20474;-74
2021/10/19 14:05:37;;;;;;;29.90;23.70;;;;;;;;;;5074137;28;20771;-73
2021/10/19 14:08:09;;;;;;;25.23;22.53;;;;;;;;;;5073022;28;20455;-73
2021/10/19 14:10:37;;;;;;;29.37;24.93;;;;;;;;;;5073249;28;20523;-73
2021/10/19 14:13:06;;;;;;;31.90;23.50;;;;;;;;;;5073432;28;20448;-73
2021/10/19 14:15:33;;;;;;;28.67;24.60;;;;;;;;;;5073408;28;20449;-73
2021/10/19 14:18:00;;;;;;;31.50;24.77;;;;;;;;;;5073583;28;20526;-74
2021/10/19 14:20:28;;;;;;;28.97;24.10;;;;;;;;;;5072840;28;20451;-73